首页
METAR-TAF:

METAR-TAF

机场 :

Gioia del Colle, 意大利

纬度: 40-46N, 经度: 016-56E, 海拔: 345米

当前天气观测

该预报发布于59分钟前的20:55 UTC
风速3节,风向西南
温度 8°C
湿度 87%
气压 1023 hPa
能見度: 7000

METAR: LIBV 262055Z 22003KT 7000 NSC 08/06 Q1023 RMK SKC VIS MIN 7000 WIND THR32 23002KT WIND THR14 27002KT WHT

时间: 22:54 (21:54 UTC)

预报

该预报发布于1小时和54分钟前的20:00 UTC
预报有效从26日的 21点(UTC)到 27日的 06点(UTC)
风速5节,风向北转西北
能見度: 8000
成为
从 26日的 22点(UTC)到 26日的 24点(UTC)
风速3节,风向多变
能見度: 4000
轻雾
短暂存在
从 27日的 02点(UTC)到 27日的 04点(UTC)
能見度: 1600
轻雾

TAF: LIBV 262000Z 2621/2706 34005KT 8000 NSC BECMG 2622/2624 VRB03KT 4000 BR NSC TEMPO 2702/2704 1600 BR NSC

超过4000个机场的气象观测和天气预报(METAR&TAF报告)。

可查询的气象台以黄色和红色小点在地图上表示。

将鼠标移到小点上方,可查看气象台名称。

然后点击查看天气观测和预报。

如需切换地图:点击带黑十字的绿色按钮放大地图;点击带横线的绿色按钮缩小地图;或者点击绿色箭头查看邻近地区的地图。


METAR-TAF: